createdAt,value
2023-01-26T00:00:19.648Z,0.92
2023-01-26T00:01:20.863Z,0.88
2023-01-26T00:02:21.530Z,0.84
2023-01-26T00:03:22.135Z,0.85
2023-01-26T00:04:22.228Z,0.84
2023-01-26T00:05:22.633Z,0.74
2023-01-26T00:06:22.543Z,0.68
2023-01-26T00:07:23.751Z,0.73
2023-01-26T00:08:24.123Z,0.63
2023-01-26T00:09:25.356Z,0.67
2023-01-26T00:10:25.843Z,0.68
2023-01-26T00:11:25.763Z,0.74
2023-01-26T00:12:26.691Z,0.68
2023-01-26T00:13:26.878Z,0.76
2023-01-26T00:14:27.814Z,0.76
2023-01-26T00:15:28.829Z,0.76
2023-01-26T00:16:30.079Z,0.81
2023-01-26T00:17:30.638Z,0.81
2023-01-26T00:18:30.854Z,0.77
2023-01-26T00:19:31.496Z,0.71
2023-01-26T00:20:32.759Z,0.61
2023-01-26T00:21:32.772Z,0.56
2023-01-26T00:22:33.433Z,0.39
2023-01-26T00:23:34.653Z,0.4
2023-01-26T00:24:34.897Z,0.42
2023-01-26T00:25:35.211Z,0.29
2023-01-26T00:26:35.842Z,0.45
2023-01-26T00:27:37.033Z,0.47
2023-01-26T00:28:37.225Z,0.29
2023-01-26T00:29:37.581Z,0.4
2023-01-26T00:30:38.629Z,0.42
2023-01-26T00:31:39.463Z,0.47
2023-01-26T00:32:39.598Z,0.52
2023-01-26T00:33:39.831Z,0.42
2023-01-26T00:34:40.319Z,0.44
2023-01-26T00:35:40.959Z,0.49
2023-01-26T00:36:41.028Z,0.45
2023-01-26T00:37:41.961Z,0.55
2023-01-26T00:38:41.875Z,0.51
2023-01-26T00:39:43.394Z,0.56
2023-01-26T00:40:43.326Z,0.42
2023-01-26T00:41:43.877Z,0.51
2023-01-26T00:42:43.785Z,0.48
2023-01-26T00:43:45.008Z,0.55
2023-01-26T00:44:45.930Z,0.4
2023-01-26T00:45:45.951Z,0.47
2023-01-26T00:46:47.177Z,0.58
2023-01-26T00:47:47.780Z,0.48
2023-01-26T00:48:47.738Z,0.63
2023-01-26T00:49:48.269Z,0.51
2023-01-26T00:50:48.212Z,0.56
2023-01-26T00:51:49.460Z,0.61
2023-01-26T00:52:49.442Z,0.63
2023-01-26T00:53:50.116Z,0.61
2023-01-26T00:54:51.689Z,0.59
2023-01-26T00:55:52.739Z,0.59
2023-01-26T00:56:52.409Z,0.61
2023-01-26T00:57:52.739Z,0.58
2023-01-26T00:58:53.948Z,0.51
2023-01-26T00:59:54.572Z,0.49
2023-01-26T01:00:55.830Z,0.49
2023-01-26T01:01:55.906Z,0.61
2023-01-26T01:02:56.350Z,0.55
2023-01-26T01:03:56.333Z,0.59
2023-01-26T01:04:57.248Z,0.56
2023-01-26T01:05:57.736Z,0.63
2023-01-26T01:06:58.932Z,0.55
2023-01-26T01:07:58.574Z,0.61
2023-01-26T01:08:59.498Z,0.63
2023-01-26T01:10:00.031Z,0.63
2023-01-26T01:11:00.350Z,0.61
2023-01-26T01:12:01.012Z,0.49
2023-01-26T01:13:01.705Z,0.59
2023-01-26T01:14:02.065Z,0.61
2023-01-26T01:15:03.256Z,0.64
2023-01-26T01:16:04.031Z,0.58
2023-01-26T01:17:04.153Z,0.58
2023-01-26T01:18:04.680Z,0.61
2023-01-26T01:19:04.677Z,0.59
2023-01-26T01:20:05.358Z,0.63
2023-01-26T01:21:06.117Z,0.55
2023-01-26T01:22:06.392Z,0.58
2023-01-26T01:23:07.609Z,0.66
2023-01-26T01:24:08.099Z,0.51
2023-01-26T01:25:08.466Z,0.52
2023-01-26T01:26:08.914Z,0.49
2023-01-26T01:27:10.133Z,0.52
2023-01-26T01:28:10.339Z,0.59
2023-01-26T01:29:10.582Z,0.59
2023-01-26T01:30:11.697Z,0.58
2023-01-26T01:31:11.886Z,0.63
2023-01-26T01:32:12.536Z,0.61
2023-01-26T01:33:12.496Z,0.51
2023-01-26T01:34:12.998Z,0.42
2023-01-26T01:35:13.535Z,0.51
2023-01-26T01:36:13.597Z,0.55
2023-01-26T01:37:14.275Z,0.44
2023-01-26T01:38:14.925Z,0.45
2023-01-26T01:40:16.869Z,0.45
2023-01-26T01:41:16.822Z,0.47
2023-01-26T01:42:17.023Z,0.42
2023-01-26T01:43:18.001Z,0.37
2023-01-26T01:44:18.206Z,0.39
2023-01-26T01:45:19.445Z,0.48
2023-01-26T01:46:19.676Z,0.45
2023-01-26T01:47:19.530Z,0.51
2023-01-26T01:48:20.801Z,0.42
2023-01-26T01:49:21.765Z,0.56
2023-01-26T01:50:21.975Z,0.55
2023-01-26T01:51:22.935Z,0.49
2023-01-26T01:52:23.375Z,0.56
2023-01-26T01:53:23.857Z,0.67
2023-01-26T01:54:24.380Z,0.51
2023-01-26T01:55:24.353Z,0.4
2023-01-26T01:56:25.670Z,0.51
2023-01-26T01:57:25.914Z,0.48
2023-01-26T01:58:26.832Z,0.59
2023-01-26T01:59:27.742Z,0.55
2023-01-26T02:00:27.643Z,0.47
2023-01-26T02:01:28.100Z,0.47
2023-01-26T02:02:28.879Z,0.49
2023-01-26T02:03:29.270Z,0.47
2023-01-26T02:04:30.548Z,0.47
2023-01-26T02:05:31.209Z,0.48
2023-01-26T02:06:32.232Z,0.49
2023-01-26T02:07:33.127Z,0.42
2023-01-26T02:08:34.371Z,0.44
2023-01-26T02:09:34.871Z,0.48
2023-01-26T02:10:35.106Z,0.52
2023-01-26T02:11:35.615Z,0.52
2023-01-26T02:12:35.823Z,0.55
2023-01-26T02:13:36.464Z,0.49
2023-01-26T02:14:37.380Z,0.56
2023-01-26T02:15:38.311Z,0.47
2023-01-26T02:16:38.559Z,0.47
2023-01-26T02:17:38.481Z,0.42
2023-01-26T02:18:38.735Z,0.45
2023-01-26T02:19:39.987Z,0.34
2023-01-26T02:20:40.177Z,0.31
2023-01-26T02:21:40.193Z,0.31
2023-01-26T02:22:40.698Z,0.3
2023-01-26T02:23:40.890Z,0.27
2023-01-26T02:24:41.117Z,0.23
2023-01-26T02:25:41.355Z,0.19
2023-01-26T02:26:41.654Z,0.2
2023-01-26T02:27:42.137Z,0.18
2023-01-26T02:28:42.776Z,0.15
2023-01-26T02:29:44.007Z,0.19
2023-01-26T02:30:45.245Z,0.15
2023-01-26T02:31:46.019Z,0.02
2023-01-26T02:32:46.196Z,0.08
2023-01-26T02:33:47.510Z,-0.03
2023-01-26T02:34:47.561Z,-0.02
2023-01-26T02:35:48.383Z,-0.03
2023-01-26T02:36:49.438Z,-0.13
2023-01-26T02:37:50.087Z,-0.15
2023-01-26T02:38:51.001Z,-0.23
2023-01-26T02:39:51.477Z,-0.21
2023-01-26T02:40:51.927Z,-0.21
2023-01-26T02:41:51.837Z,-0.27
2023-01-26T02:42:52.194Z,-0.28
2023-01-26T02:43:53.404Z,-0.41
2023-01-26T02:44:53.323Z,-0.23
2023-01-26T02:45:54.648Z,-0.26
2023-01-26T02:46:55.155Z,-0.3
2023-01-26T02:47:55.075Z,-0.24
2023-01-26T02:48:55.950Z,-0.24
2023-01-26T02:49:56.370Z,-0.24
2023-01-26T02:50:57.579Z,-0.27
2023-01-26T02:51:57.806Z,-0.24
2023-01-26T02:52:57.749Z,-0.23
2023-01-26T02:53:58.236Z,-0.33
2023-01-26T02:54:58.452Z,-0.21
2023-01-26T02:55:58.700Z,-0.24
2023-01-26T02:56:59.764Z,-0.26
2023-01-26T02:58:00.679Z,-0.28
2023-01-26T02:59:00.627Z,-0.23
2023-01-26T03:00:01.269Z,-0.27
2023-01-26T03:01:01.881Z,-0.21
2023-01-26T03:02:02.487Z,-0.21
2023-01-26T03:03:02.841Z,-0.27
2023-01-26T03:04:03.804Z,-0.27
2023-01-26T03:05:03.768Z,-0.24
2023-01-26T03:06:03.991Z,-0.24
2023-01-26T03:07:05.294Z,-0.23
2023-01-26T03:08:06.281Z,-0.2
2023-01-26T03:09:06.183Z,-0.24
2023-01-26T03:10:06.390Z,-0.24
2023-01-26T03:11:07.443Z,-0.23
2023-01-26T03:12:07.377Z,-0.2
2023-01-26T03:13:07.606Z,-0.21
2023-01-26T03:14:08.093Z,-0.28
2023-01-26T03:15:07.992Z,-0.21
2023-01-26T03:16:09.384Z,-0.23
2023-01-26T03:17:09.687Z,-0.28
2023-01-26T03:18:11.171Z,-0.15
2023-01-26T03:19:11.417Z,-0.28
2023-01-26T03:20:12.417Z,-0.2
2023-01-26T03:21:13.032Z,-0.24
2023-01-26T03:22:13.237Z,-0.21
2023-01-26T03:23:13.457Z,-0.23
2023-01-26T03:24:14.253Z,-0.18
2023-01-26T03:25:13.739Z,-0.24
2023-01-26T03:26:15.260Z,-0.24
2023-01-26T03:27:16.041Z,-0.12
2023-01-26T03:28:16.669Z,-0.12
2023-01-26T03:29:17.608Z,-0.13
2023-01-26T03:30:19.220Z,-0.13
2023-01-26T03:31:19.344Z,-0.07
2023-01-26T03:32:19.770Z,-0.09
2023-01-26T03:33:20.700Z,-0.03
2023-01-26T03:34:20.648Z,-0.03
2023-01-26T03:35:20.865Z,-0.12
2023-01-26T03:36:21.777Z,-0.07
2023-01-26T03:37:22.252Z,-0.07
2023-01-26T03:38:22.459Z,-0.05
2023-01-26T03:39:22.388Z,0
2023-01-26T03:40:22.876Z,-0.03
2023-01-26T03:41:22.880Z,-0.05
2023-01-26T03:42:22.794Z,-0.07
2023-01-26T03:43:24.085Z,-0.02
2023-01-26T03:44:25.022Z,-0.02
2023-01-26T03:45:25.668Z,0.01
2023-01-26T03:46:26.242Z,-0.09
2023-01-26T03:47:26.682Z,-0.03
2023-01-26T03:48:27.322Z,0.01
2023-01-26T03:49:28.576Z,-0.03
2023-01-26T03:50:28.566Z,0.08
2023-01-26T03:51:29.772Z,0.05
2023-01-26T03:52:29.987Z,0.09
2023-01-26T03:53:29.905Z,0.05
2023-01-26T03:54:30.147Z,0.09
2023-01-26T03:55:30.339Z,0.05
2023-01-26T03:56:31.576Z,0.05
2023-01-26T03:57:31.906Z,0.09
2023-01-26T03:58:31.837Z,0.09
2023-01-26T03:59:33.067Z,0.02
2023-01-26T04:00:33.415Z,0.11
2023-01-26T04:01:33.755Z,0.12
2023-01-26T04:02:34.383Z,0.09
2023-01-26T04:03:34.623Z,0.15
2023-01-26T04:04:35.299Z,0.06
2023-01-26T04:05:35.551Z,0.12
2023-01-26T04:06:36.193Z,0.15
2023-01-26T04:07:37.226Z,0.16
2023-01-26T04:08:37.717Z,0.13
2023-01-26T04:09:37.959Z,0.2
2023-01-26T04:10:37.859Z,0.18
2023-01-26T04:11:38.385Z,0.23
2023-01-26T04:12:38.733Z,0.16
2023-01-26T04:13:39.716Z,0.27
2023-01-26T04:14:55.783Z,0.24
2023-01-26T04:15:40.997Z,0.29
2023-01-26T04:16:42.154Z,0.3
2023-01-26T04:17:42.234Z,0.26
2023-01-26T04:18:43.189Z,0.29
2023-01-26T04:19:44.461Z,0.23
2023-01-26T04:20:44.683Z,0.26
2023-01-26T04:21:45.890Z,0.31
2023-01-26T04:22:46.523Z,0.2
2023-01-26T04:23:46.826Z,0.23
2023-01-26T04:24:47.709Z,0.2
2023-01-26T04:25:48.187Z,0.16
2023-01-26T04:26:48.447Z,0.19
2023-01-26T04:27:48.792Z,0.16
2023-01-26T04:28:49.988Z,0.12
2023-01-26T04:29:50.048Z,0.18
2023-01-26T04:30:51.116Z,0.05
2023-01-26T04:31:51.298Z,0.01
2023-01-26T04:32:52.355Z,0.02
2023-01-26T04:33:52.263Z,0.05
2023-01-26T04:34:53.214Z,0.01
2023-01-26T04:35:53.706Z,0.06
2023-01-26T04:36:54.677Z,0.02
2023-01-26T04:37:55.406Z,0.08
2023-01-26T04:38:55.620Z,0.08
2023-01-26T04:39:56.592Z,0.18
2023-01-26T04:40:57.218Z,0.12
2023-01-26T04:41:58.766Z,0.05
2023-01-26T04:42:59.403Z,0.05
2023-01-26T04:43:59.339Z,0
2023-01-26T04:45:00.567Z,0
2023-01-26T04:46:00.946Z,-0.05
2023-01-26T04:47:01.572Z,-0.03
2023-01-26T04:48:02.599Z,-0.03
2023-01-26T04:49:02.820Z,-0.15
2023-01-26T04:50:03.522Z,-0.21
2023-01-26T04:51:04.256Z,-0.15
2023-01-26T04:52:05.454Z,-0.07
2023-01-26T04:53:05.646Z,-0.2
2023-01-26T04:54:06.616Z,-0.2
2023-01-26T04:55:06.854Z,-0.21
2023-01-26T04:56:07.219Z,-0.15
2023-01-26T04:57:07.897Z,-0.18
2023-01-26T04:58:09.979Z,-0.21
2023-01-26T04:59:09.471Z,-0.2
2023-01-26T05:00:11.214Z,-0.28
2023-01-26T05:01:10.770Z,-0.23
2023-01-26T05:02:11.097Z,-0.23
2023-01-26T05:03:12.010Z,-0.26
2023-01-26T05:04:12.059Z,-0.28
2023-01-26T05:05:12.381Z,-0.18
2023-01-26T05:06:12.330Z,-0.2
2023-01-26T05:07:13.259Z,-0.18
2023-01-26T05:08:13.848Z,-0.15
2023-01-26T05:09:14.071Z,-0.06
2023-01-26T05:10:16.622Z,-0.1
2023-01-26T05:11:14.802Z,-0.15
2023-01-26T05:12:16.056Z,-0.18
2023-01-26T05:13:16.017Z,-0.07
2023-01-26T05:14:16.650Z,-0.18
2023-01-26T05:15:17.567Z,-0.1
2023-01-26T05:16:18.863Z,-0.12
2023-01-26T05:17:18.891Z,-0.15
2023-01-26T05:18:19.802Z,-0.1
2023-01-26T05:19:20.027Z,-0.12
2023-01-26T05:20:20.359Z,-0.1
2023-01-26T05:21:20.598Z,-0.15
2023-01-26T05:22:21.126Z,-0.15
2023-01-26T05:23:21.653Z,-0.1
2023-01-26T05:24:22.461Z,-0.21
2023-01-26T05:25:22.382Z,-0.09
2023-01-26T05:26:22.629Z,-0.12
2023-01-26T05:27:23.909Z,-0.23
2023-01-26T05:28:24.366Z,-0.17
2023-01-26T05:29:25.865Z,-0.18
2023-01-26T05:30:26.510Z,-0.12
2023-01-26T05:31:27.432Z,-0.23
2023-01-26T05:32:28.421Z,-0.2
2023-01-26T05:33:28.623Z,-0.21
2023-01-26T05:34:28.854Z,-0.24
2023-01-26T05:35:30.091Z,-0.31
2023-01-26T05:36:30.312Z,-0.27
2023-01-26T05:37:30.923Z,-0.38
2023-01-26T05:38:31.266Z,-0.38
2023-01-26T05:39:32.172Z,-0.41
2023-01-26T05:40:33.126Z,-0.38
2023-01-26T05:41:34.354Z,-0.44
2023-01-26T05:42:34.364Z,-0.35
2023-01-26T05:43:35.261Z,-0.42
2023-01-26T05:44:36.509Z,-0.31
2023-01-26T05:45:36.811Z,-0.38
2023-01-26T05:46:36.849Z,-0.42
2023-01-26T05:47:38.091Z,-0.35
2023-01-26T05:48:38.845Z,-0.35
2023-01-26T05:49:38.910Z,-0.23
2023-01-26T05:50:39.882Z,-0.27
2023-01-26T05:51:39.843Z,-0.24
2023-01-26T05:52:40.758Z,-0.27
2023-01-26T05:53:42.122Z,-0.27
2023-01-26T05:54:42.477Z,-0.24
2023-01-26T05:55:43.684Z,-0.27
2023-01-26T05:56:43.930Z,-0.21
2023-01-26T05:57:44.648Z,-0.26
2023-01-26T05:58:45.691Z,-0.26
2023-01-26T05:59:45.921Z,-0.26
2023-01-26T06:00:45.830Z,-0.27
2023-01-26T06:01:46.776Z,-0.24
2023-01-26T06:02:49.143Z,-0.3
2023-01-26T06:03:48.072Z,-0.33
2023-01-26T06:04:48.356Z,-0.36
2023-01-26T06:05:49.046Z,-0.48
2023-01-26T06:06:49.274Z,-0.53
2023-01-26T06:07:50.491Z,-0.46
2023-01-26T06:08:50.800Z,-0.53
2023-01-26T06:09:50.733Z,-0.42
2023-01-26T06:10:51.676Z,-0.44
2023-01-26T06:11:52.093Z,-0.48
2023-01-26T06:12:53.338Z,-0.53
2023-01-26T06:13:53.818Z,-0.57
2023-01-26T06:14:53.834Z,-0.6
2023-01-26T06:15:54.750Z,-0.57
2023-01-26T06:16:55.853Z,-0.62
2023-01-26T06:17:56.165Z,-0.67
2023-01-26T06:18:56.899Z,-0.54
2023-01-26T06:19:57.146Z,-0.57
2023-01-26T06:20:58.388Z,-0.49
2023-01-26T06:21:58.095Z,-0.51
2023-01-26T06:22:59.320Z,-0.54
2023-01-26T06:24:00.032Z,-0.54
2023-01-26T06:25:00.365Z,-0.56
2023-01-26T06:26:00.691Z,-0.57
2023-01-26T06:27:01.635Z,-0.6
2023-01-26T06:28:02.190Z,-0.59
2023-01-26T06:29:02.808Z,-0.54
2023-01-26T06:30:02.730Z,-0.54
2023-01-26T06:31:03.215Z,-0.53
2023-01-26T06:32:03.518Z,-0.53
2023-01-26T06:33:06.073Z,-0.46
2023-01-26T06:34:03.995Z,-0.41
2023-01-26T06:35:04.611Z,-0.56
2023-01-26T06:36:04.939Z,-0.41
2023-01-26T06:37:05.472Z,-0.46
2023-01-26T06:38:05.121Z,-0.39
2023-01-26T06:39:06.768Z,-0.36
2023-01-26T06:40:07.390Z,-0.39
2023-01-26T06:41:07.728Z,-0.35
2023-01-26T06:42:08.102Z,-0.33
2023-01-26T06:43:09.354Z,-0.23
2023-01-26T06:44:09.262Z,-0.24
2023-01-26T06:45:10.876Z,-0.24
2023-01-26T06:46:11.018Z,-0.26
2023-01-26T06:47:11.951Z,-0.26
2023-01-26T06:48:11.611Z,-0.27
2023-01-26T06:49:12.639Z,-0.27
2023-01-26T06:50:14.357Z,-0.28
2023-01-26T06:51:14.372Z,-0.33
2023-01-26T06:52:14.878Z,-0.24
2023-01-26T06:53:15.080Z,-0.18
2023-01-26T06:54:15.993Z,-0.28
2023-01-26T06:55:16.910Z,-0.26
2023-01-26T06:56:17.852Z,-0.24
2023-01-26T06:57:17.959Z,-0.26
2023-01-26T06:58:19.228Z,-0.28
2023-01-26T06:59:20.232Z,-0.27
2023-01-26T07:00:20.453Z,-0.41
2023-01-26T07:01:21.454Z,-0.36
2023-01-26T07:02:22.365Z,-0.39
2023-01-26T07:03:23.095Z,-0.42
2023-01-26T07:04:23.491Z,-0.35
2023-01-26T07:05:24.448Z,-0.39
2023-01-26T07:06:25.429Z,-0.38
2023-01-26T07:07:25.650Z,-0.42
2023-01-26T07:08:26.567Z,-0.35
2023-01-26T07:09:26.571Z,-0.39
2023-01-26T07:10:28.204Z,-0.45
2023-01-26T07:11:28.529Z,-0.48
2023-01-26T07:12:28.470Z,-0.51
2023-01-26T07:13:28.744Z,-0.44
2023-01-26T07:14:28.970Z,-0.46
2023-01-26T07:15:29.461Z,-0.46
2023-01-26T07:16:31.425Z,-0.45
2023-01-26T07:17:29.716Z,-0.49
2023-01-26T07:18:30.357Z,-0.45
2023-01-26T07:19:30.544Z,-0.57
2023-01-26T07:20:31.854Z,-0.56
2023-01-26T07:21:32.093Z,-0.42
2023-01-26T07:22:32.627Z,-0.51
2023-01-26T07:23:35.271Z,-0.53
2023-01-26T07:24:34.126Z,-0.51
2023-01-26T07:25:34.489Z,-0.53
2023-01-26T07:26:35.411Z,-0.44
2023-01-26T07:27:36.619Z,-0.39
2023-01-26T07:28:40.528Z,-0.46
2023-01-26T07:29:37.321Z,-0.44
2023-01-26T07:30:38.612Z,-0.46
2023-01-26T07:31:38.789Z,-0.41
2023-01-26T07:32:38.653Z,-0.48
2023-01-26T07:33:39.588Z,-0.41
2023-01-26T07:34:40.216Z,-0.45
2023-01-26T07:35:41.200Z,-0.45
2023-01-26T07:36:41.849Z,-0.45
2023-01-26T07:37:42.371Z,-0.45
2023-01-26T07:38:42.580Z,-0.44
2023-01-26T07:39:43.158Z,-0.42
2023-01-26T07:40:43.090Z,-0.41
2023-01-26T07:41:43.723Z,-0.41
2023-01-26T07:42:43.936Z,-0.38
2023-01-26T07:43:45.078Z,-0.38
2023-01-26T07:44:45.746Z,-0.35
2023-01-26T07:45:46.031Z,-0.36
2023-01-26T07:46:46.243Z,-0.39
2023-01-26T07:47:46.627Z,-0.41
2023-01-26T07:48:47.884Z,-0.39
2023-01-26T07:49:48.317Z,-0.44
2023-01-26T07:50:49.606Z,-0.35
2023-01-26T07:51:50.161Z,-0.41
2023-01-26T07:52:50.778Z,-0.36
2023-01-26T07:53:51.016Z,-0.31
2023-01-26T07:54:51.946Z,-0.31
2023-01-26T07:55:52.442Z,-0.24
2023-01-26T07:56:52.820Z,-0.24
2023-01-26T07:57:53.447Z,-0.28
2023-01-26T07:58:54.178Z,-0.23
2023-01-26T07:59:55.327Z,-0.21
2023-01-26T08:00:55.994Z,-0.24
2023-01-26T08:01:57.151Z,-0.23
2023-01-26T08:02:57.860Z,-0.26
2023-01-26T08:03:58.202Z,-0.2
2023-01-26T08:04:59.153Z,-0.15
2023-01-26T08:06:00.703Z,-0.15
2023-01-26T08:07:01.489Z,-0.15
2023-01-26T08:08:01.243Z,-0.15
2023-01-26T08:09:01.462Z,-0.21
2023-01-26T08:10:01.764Z,-0.23
2023-01-26T08:11:02.600Z,-0.2
2023-01-26T08:12:02.538Z,-0.24
2023-01-26T08:13:03.172Z,-0.26
2023-01-26T08:14:02.937Z,-0.24
2023-01-26T08:15:03.308Z,-0.33
2023-01-26T08:16:04.069Z,-0.24
2023-01-26T08:17:04.575Z,-0.21
2023-01-26T08:18:04.793Z,-0.18
2023-01-26T08:19:05.312Z,-0.24
2023-01-26T08:20:05.642Z,-0.24
2023-01-26T08:21:06.317Z,-0.17
2023-01-26T08:22:06.857Z,-0.24
2023-01-26T08:23:07.390Z,-0.28
2023-01-26T08:24:08.146Z,-0.17
2023-01-26T08:25:08.489Z,-0.18
2023-01-26T08:26:09.485Z,-0.18
2023-01-26T08:27:09.856Z,-0.21
2023-01-26T08:28:10.359Z,-0.24
2023-01-26T08:29:10.922Z,-0.23
2023-01-26T08:30:12.172Z,-0.17
2023-01-26T08:31:12.316Z,-0.09
2023-01-26T08:32:12.596Z,-0.12
2023-01-26T08:33:13.813Z,-0.12
2023-01-26T08:34:14.068Z,0
2023-01-26T08:35:15.268Z,-0.06
2023-01-26T08:36:15.526Z,0.08
2023-01-26T08:37:15.830Z,0.06
2023-01-26T08:38:16.072Z,0.02
2023-01-26T08:39:16.714Z,0.01
2023-01-26T08:40:17.933Z,0.12
2023-01-26T08:41:17.868Z,0.11
2023-01-26T08:42:17.846Z,0.11
2023-01-26T08:43:18.802Z,0.13
2023-01-26T08:44:20.093Z,0.15
2023-01-26T08:45:20.608Z,0.2
2023-01-26T08:46:21.571Z,0.23
2023-01-26T08:47:21.980Z,0.13
2023-01-26T08:48:22.911Z,0.18
2023-01-26T08:49:22.877Z,0.15
2023-01-26T08:50:23.908Z,0.19
2023-01-26T08:51:24.835Z,0.26
2023-01-26T08:52:25.533Z,0.26
2023-01-26T08:53:25.787Z,0.31
2023-01-26T08:54:26.281Z,0.29
2023-01-26T08:55:26.780Z,0.33
2023-01-26T08:56:26.812Z,0.23
2023-01-26T08:57:27.310Z,0.26
2023-01-26T08:58:26.966Z,0.18
2023-01-26T08:59:28.501Z,0.24
2023-01-26T09:00:29.209Z,0.19
2023-01-26T09:01:30.620Z,0.13
2023-01-26T09:02:31.597Z,0.15
2023-01-26T09:03:31.898Z,0.11
2023-01-26T09:04:32.140Z,0
2023-01-26T09:05:32.078Z,-0.02
2023-01-26T09:06:32.300Z,-0.03
2023-01-26T09:07:33.285Z,-0.07
2023-01-26T09:08:33.520Z,-0.13
2023-01-26T09:09:33.459Z,-0.1
2023-01-26T09:10:33.977Z,-0.13
2023-01-26T09:11:34.605Z,-0.15
2023-01-26T09:12:35.276Z,-0.12
2023-01-26T09:13:36.069Z,-0.2
2023-01-26T09:14:36.051Z,-0.2
2023-01-26T09:15:36.540Z,-0.2
2023-01-26T09:16:36.873Z,-0.1
2023-01-26T09:17:36.886Z,-0.12
2023-01-26T09:18:37.950Z,-0.05
2023-01-26T09:19:38.207Z,-0.13
2023-01-26T09:20:38.433Z,0.01
2023-01-26T09:21:39.148Z,0
2023-01-26T09:22:40.144Z,-0.07
2023-01-26T09:23:40.719Z,-0.15
2023-01-26T09:24:41.004Z,-0.06
2023-01-26T09:25:41.951Z,-0.03
2023-01-26T09:26:43.184Z,0.06
2023-01-26T09:27:43.409Z,0.08
2023-01-26T09:28:43.637Z,0
2023-01-26T09:29:43.934Z,0
2023-01-26T09:30:45.176Z,0.02
2023-01-26T09:31:46.188Z,0.12
2023-01-26T09:32:46.167Z,0.16
2023-01-26T09:33:48.212Z,0.18
2023-01-26T09:34:49.680Z,0.26
2023-01-26T09:35:48.183Z,0.2
2023-01-26T09:36:48.696Z,0.24
2023-01-26T09:37:49.358Z,0.24
2023-01-26T09:38:49.911Z,0.27
2023-01-26T09:39:50.059Z,0.33
2023-01-26T09:40:50.125Z,0.3
2023-01-26T09:41:51.498Z,0.4
2023-01-26T09:42:51.742Z,0.39
2023-01-26T09:43:52.260Z,0.42
2023-01-26T09:44:52.528Z,0.39
2023-01-26T09:45:53.015Z,0.44
2023-01-26T09:46:53.725Z,0.42
2023-01-26T09:47:54.642Z,0.39
2023-01-26T09:48:55.148Z,0.42
2023-01-26T09:49:59.959Z,0.27
2023-01-26T09:50:55.982Z,0.23
2023-01-26T09:52:00.317Z,0.15
2023-01-26T09:52:57.804Z,0.11
2023-01-26T09:53:58.299Z,0.06
2023-01-26T09:54:59.435Z,0.05
2023-01-26T09:55:59.754Z,-0.05
2023-01-26T09:57:00.740Z,-0.03
2023-01-26T09:58:01.386Z,-0.02
2023-01-26T09:59:02.633Z,0.01
2023-01-26T10:00:03.236Z,-0.05
2023-01-26T10:01:04.015Z,-0.13
2023-01-26T10:02:04.366Z,-0.02
2023-01-26T10:03:05.474Z,-0.03
2023-01-26T10:04:05.982Z,0.01
2023-01-26T10:05:06.218Z,-0.03
2023-01-26T10:06:06.889Z,-0.13
2023-01-26T10:07:07.392Z,-0.05
2023-01-26T10:08:07.684Z,-0.09
2023-01-26T10:09:08.222Z,-0.05
2023-01-26T10:10:07.888Z,-0.09
2023-01-26T10:11:09.203Z,-0.03
2023-01-26T10:12:09.898Z,0.11
2023-01-26T10:13:11.123Z,0.13
2023-01-26T10:14:11.611Z,0.13
2023-01-26T10:15:12.707Z,0.13
2023-01-26T10:16:12.243Z,0.19
2023-01-26T10:17:12.472Z,0.19
2023-01-26T10:18:12.977Z,0.19
2023-01-26T10:19:12.926Z,0.24
2023-01-26T10:20:13.030Z,0.19
2023-01-26T10:21:13.690Z,0.19
2023-01-26T10:22:13.669Z,0.2
2023-01-26T10:23:15.064Z,0.2
2023-01-26T10:24:15.766Z,0.16
2023-01-26T10:25:16.443Z,0.08
2023-01-26T10:26:16.566Z,0.11
2023-01-26T10:27:17.604Z,0.11
2023-01-26T10:28:18.099Z,0.06
2023-01-26T10:29:18.583Z,0.01
2023-01-26T10:30:19.748Z,0
2023-01-26T10:31:20.333Z,0.01
2023-01-26T10:32:20.124Z,0.01
2023-01-26T10:33:22.835Z,-0.02
2023-01-26T10:34:21.483Z,-0.05
2023-01-26T10:35:22.015Z,0.06
2023-01-26T10:36:22.544Z,0.02
2023-01-26T10:37:23.538Z,0.06
2023-01-26T10:38:23.791Z,0.08
2023-01-26T10:39:23.797Z,0.05
2023-01-26T10:40:25.138Z,0.08
2023-01-26T10:41:25.696Z,0.05
2023-01-26T10:42:26.251Z,0.06
2023-01-26T10:43:26.255Z,-0.03
2023-01-26T10:44:27.476Z,0.05
2023-01-26T10:45:27.754Z,0
2023-01-26T10:46:28.949Z,0.06
2023-01-26T10:47:29.050Z,0.05
2023-01-26T10:48:29.989Z,-0.07
2023-01-26T10:49:29.966Z,-0.07
2023-01-26T10:50:30.926Z,0.02
2023-01-26T10:51:31.486Z,0.06
2023-01-26T10:52:31.706Z,0.05
2023-01-26T10:53:32.986Z,0.15
2023-01-26T10:54:33.517Z,0.13
2023-01-26T10:55:33.786Z,0.15
2023-01-26T10:56:34.004Z,0.19
2023-01-26T10:57:35.222Z,0.2
2023-01-26T10:58:35.741Z,0.18
2023-01-26T10:59:36.660Z,0.16
2023-01-26T11:00:36.917Z,0.15
2023-01-26T11:01:37.747Z,0.11
2023-01-26T11:02:38.349Z,0.02
2023-01-26T11:03:38.588Z,0.05
2023-01-26T11:04:39.984Z,0.05
2023-01-26T11:05:39.639Z,0.05
2023-01-26T11:06:41.236Z,0
2023-01-26T11:07:41.750Z,-0.03
2023-01-26T11:08:42.320Z,-0.07
2023-01-26T11:09:42.830Z,0.01
2023-01-26T11:10:43.201Z,-0.07
2023-01-26T11:11:44.012Z,0
2023-01-26T11:12:44.662Z,-0.03
2023-01-26T11:13:45.774Z,0.05
2023-01-26T11:14:46.459Z,0
2023-01-26T11:15:47.712Z,0.02
2023-01-26T11:16:47.904Z,0.01
2023-01-26T11:17:49.109Z,0
2023-01-26T11:18:49.591Z,-0.09
2023-01-26T11:19:49.846Z,-0.02
2023-01-26T11:20:49.763Z,-0.07
2023-01-26T11:21:50.796Z,-0.02
2023-01-26T11:22:50.733Z,-0.1
2023-01-26T11:23:51.813Z,-0.02
2023-01-26T11:24:52.168Z,0.01
2023-01-26T11:25:53.394Z,0.06
2023-01-26T11:26:53.316Z,0.12
2023-01-26T11:27:54.547Z,0.26
2023-01-26T11:28:55.047Z,0.23
2023-01-26T11:29:55.332Z,0.37
2023-01-26T11:30:55.718Z,0.4
2023-01-26T11:31:56.903Z,0.48
2023-01-26T11:32:56.634Z,0.58
2023-01-26T11:33:57.591Z,0.58
2023-01-26T11:34:58.535Z,0.51
2023-01-26T11:35:58.843Z,0.51
2023-01-26T11:37:00.062Z,0.47
2023-01-26T11:38:00.585Z,0.61
2023-01-26T11:39:00.873Z,0.61
2023-01-26T11:40:01.404Z,0.63
2023-01-26T11:41:01.639Z,0.67
2023-01-26T11:42:02.298Z,0.63
2023-01-26T11:43:03.247Z,0.58
2023-01-26T11:44:04.187Z,0.59
2023-01-26T11:45:04.390Z,0.66
2023-01-26T11:46:05.667Z,0.74
2023-01-26T11:47:06.073Z,0.77
2023-01-26T11:48:06.441Z,0.78
2023-01-26T11:49:06.501Z,0.81
2023-01-26T11:50:07.733Z,0.82
2023-01-26T11:51:11.553Z,0.88
2023-01-26T11:52:08.867Z,0.95
2023-01-26T11:53:09.790Z,1
2023-01-26T11:54:10.765Z,0.99
2023-01-26T11:55:11.734Z,0.99
2023-01-26T11:56:11.155Z,1
2023-01-26T11:57:12.370Z,1
2023-01-26T11:58:12.304Z,1.04
2023-01-26T11:59:13.221Z,1.07
2023-01-26T12:00:31.333Z,0.99
2023-01-26T12:01:14.943Z,1.07
2023-01-26T12:02:15.038Z,1.07
2023-01-26T12:03:15.369Z,1.09
2023-01-26T12:04:15.716Z,1.04
2023-01-26T12:05:17.365Z,1.06
2023-01-26T12:06:17.584Z,1.13
2023-01-26T12:07:17.805Z,1.06
2023-01-26T12:08:18.434Z,1.12
2023-01-26T12:09:18.749Z,1.09
2023-01-26T12:10:20.009Z,1.04
2023-01-26T12:11:19.938Z,0.95
2023-01-26T12:12:20.681Z,1.12
2023-01-26T12:13:21.898Z,1.03
2023-01-26T12:14:22.148Z,1.12
2023-01-26T12:15:22.644Z,0.99
2023-01-26T12:16:22.706Z,1.04
2023-01-26T12:17:24.835Z,1.06
2023-01-26T12:18:42.373Z,0.99
2023-01-26T12:19:24.931Z,0.96
2023-01-26T12:20:27.327Z,1.03
2023-01-26T12:21:25.279Z,0.95
2023-01-26T12:22:26.630Z,1.02
2023-01-26T12:23:26.677Z,1.03
2023-01-26T12:25:20.301Z,0.96
2023-01-26T12:25:39.168Z,1.03
2023-01-26T12:26:38.962Z,1.04
2023-01-26T12:27:39.246Z,0.99
2023-01-26T12:28:39.457Z,1.09
2023-01-26T12:29:40.391Z,0.95
2023-01-26T12:30:41.216Z,1.07
2023-01-26T12:31:41.383Z,0.99
2023-01-26T12:32:41.619Z,1.07
2023-01-26T12:33:42.877Z,0.96
2023-01-26T12:34:42.838Z,1.2
2023-01-26T12:35:43.767Z,1.09
2023-01-26T12:36:45.042Z,1.13
2023-01-26T12:37:45.383Z,1.1
2023-01-26T12:38:46.024Z,1.1
2023-01-26T12:39:46.972Z,1.02
2023-01-26T12:40:47.927Z,1.04
2023-01-26T12:41:48.478Z,0.95
2023-01-26T12:42:48.693Z,1.02
2023-01-26T12:43:48.917Z,1
2023-01-26T12:44:49.125Z,1.03
2023-01-26T12:45:49.770Z,1.06
2023-01-26T12:46:50.309Z,1
2023-01-26T12:47:50.565Z,1.02
2023-01-26T12:48:51.225Z,1
2023-01-26T12:49:51.914Z,0.96
2023-01-26T12:50:51.821Z,0.92
2023-01-26T12:51:52.797Z,0.88
2023-01-26T12:52:53.985Z,0.85
2023-01-26T12:53:54.243Z,0.77
2023-01-26T12:54:54.315Z,0.88
2023-01-26T12:55:54.906Z,0.82
2023-01-26T12:56:55.172Z,0.82
2023-01-26T12:57:56.207Z,0.7
2023-01-26T12:58:56.879Z,0.71
2023-01-26T12:59:57.643Z,0.59
2023-01-26T13:00:59.116Z,0.67
2023-01-26T13:01:59.450Z,0.61
2023-01-26T13:02:59.707Z,0.63
2023-01-26T13:04:00.667Z,0.67
2023-01-26T13:05:01.082Z,0.7
2023-01-26T13:06:01.738Z,0.67
2023-01-26T13:07:03.235Z,0.67
2023-01-26T13:08:03.712Z,0.56
2023-01-26T13:09:03.928Z,0.61
2023-01-26T13:10:04.577Z,0.58
2023-01-26T13:11:05.661Z,0.68
2023-01-26T13:12:06.049Z,0.76
2023-01-26T13:13:06.695Z,0.77
2023-01-26T13:14:07.204Z,0.74
2023-01-26T13:15:07.785Z,0.77
2023-01-26T13:16:08.692Z,0.73
2023-01-26T13:17:09.105Z,0.81
2023-01-26T13:18:09.374Z,0.74
2023-01-26T13:19:10.359Z,0.74